sensor_id;sensor_type;location;lat;lon;timestamp;P1;P2;P0
70554;PMS5003;58104;52.744;15.242;2023-04-30T00:02:10;14;14;
70554;PMS5003;58104;52.744;15.242;2023-04-30T00:04:35;13;13;
70554;PMS5003;58104;52.744;15.242;2023-04-30T00:07:01;10;9;
70554;PMS5003;58104;52.744;15.242;2023-04-30T00:09:26;12;10;
70554;PMS5003;58104;52.744;15.242;2023-04-30T00:11:52;10;10;
70554;PMS5003;58104;52.744;15.242;2023-04-30T00:14:17;10;10;
70554;PMS5003;58104;52.744;15.242;2023-04-30T00:16:43;12;12;
70554;PMS5003;58104;52.744;15.242;2023-04-30T00:19:08;11;11;
70554;PMS5003;58104;52.744;15.242;2023-04-30T00:21:34;10;10;
70554;PMS5003;58104;52.744;15.242;2023-04-30T00:23:59;12;10;
70554;PMS5003;58104;52.744;15.242;2023-04-30T00:26:25;16;12;
70554;PMS5003;58104;52.744;15.242;2023-04-30T00:28:50;12;10;
70554;PMS5003;58104;52.744;15.242;2023-04-30T00:31:16;9;7;
70554;PMS5003;58104;52.744;15.242;2023-04-30T00:33:41;9;9;
70554;PMS5003;58104;52.744;15.242;2023-04-30T00:36:07;10;10;
70554;PMS5003;58104;52.744;15.242;2023-04-30T00:38:32;9;8;
70554;PMS5003;58104;52.744;15.242;2023-04-30T00:40:58;9;9;
70554;PMS5003;58104;52.744;15.242;2023-04-30T00:43:23;10;9;
70554;PMS5003;58104;52.744;15.242;2023-04-30T00:45:49;8;8;
70554;PMS5003;58104;52.744;15.242;2023-04-30T00:48:14;10;9;
70554;PMS5003;58104;52.744;15.242;2023-04-30T00:50:40;10;9;
70554;PMS5003;58104;52.744;15.242;2023-04-30T00:53:05;11;8;
70554;PMS5003;58104;52.744;15.242;2023-04-30T00:55:30;9;7;
70554;PMS5003;58104;52.744;15.242;2023-04-30T00:57:56;10;10;
70554;PMS5003;58104;52.744;15.242;2023-04-30T01:00:21;10;9;
70554;PMS5003;58104;52.744;15.242;2023-04-30T01:02:47;10;8;
70554;PMS5003;58104;52.744;15.242;2023-04-30T01:05:12;11;8;
70554;PMS5003;58104;52.744;15.242;2023-04-30T01:07:38;13;10;
70554;PMS5003;58104;52.744;15.242;2023-04-30T01:10:03;12;11;
70554;PMS5003;58104;52.744;15.242;2023-04-30T01:12:31;7;7;
70554;PMS5003;58104;52.744;15.242;2023-04-30T01:14:56;10;8;
70554;PMS5003;58104;52.744;15.242;2023-04-30T01:17:22;9;7;
70554;PMS5003;58104;52.744;15.242;2023-04-30T01:19:45;13;8;
70554;PMS5003;58104;52.744;15.242;2023-04-30T01:22:13;8;8;
70554;PMS5003;58104;52.744;15.242;2023-04-30T01:29:27;8;7;
70554;PMS5003;58104;52.744;15.242;2023-04-30T01:31:53;8;7;
70554;PMS5003;58104;52.744;15.242;2023-04-30T01:34:18;13;10;
70554;PMS5003;58104;52.744;15.242;2023-04-30T01:36:46;9;9;
70554;PMS5003;58104;52.744;15.242;2023-04-30T01:39:14;10;8;
70554;PMS5003;58104;52.744;15.242;2023-04-30T01:41:36;7;7;
70554;PMS5003;58104;52.744;15.242;2023-04-30T01:44:05;8;8;
70554;PMS5003;58104;52.744;15.242;2023-04-30T01:46:26;15;11;
70554;PMS5003;58104;52.744;15.242;2023-04-30T01:48:52;11;10;
70554;PMS5003;58104;52.744;15.242;2023-04-30T01:51:20;10;8;
70554;PMS5003;58104;52.744;15.242;2023-04-30T01:53:42;10;8;
70554;PMS5003;58104;52.744;15.242;2023-04-30T01:56:08;8;8;
70554;PMS5003;58104;52.744;15.242;2023-04-30T01:58:32;8;7;
70554;PMS5003;58104;52.744;15.242;2023-04-30T02:00:57;12;12;
70554;PMS5003;58104;52.744;15.242;2023-04-30T02:03:23;9;9;
70554;PMS5003;58104;52.744;15.242;2023-04-30T02:05:49;10;8;
70554;PMS5003;58104;52.744;15.242;2023-04-30T02:08:14;7;7;
70554;PMS5003;58104;52.744;15.242;2023-04-30T02:10:39;9;8;
70554;PMS5003;58104;52.744;15.242;2023-04-30T02:13:05;8;8;
70554;PMS5003;58104;52.744;15.242;2023-04-30T02:15:30;9;7;
70554;PMS5003;58104;52.744;15.242;2023-04-30T02:17:56;7;7;
70554;PMS5003;58104;52.744;15.242;2023-04-30T02:20:21;9;7;
70554;PMS5003;58104;52.744;15.242;2023-04-30T02:22:47;8;8;
70554;PMS5003;58104;52.744;15.242;2023-04-30T02:25:12;11;8;
70554;PMS5003;58104;52.744;15.242;2023-04-30T02:27:38;9;7;
70554;PMS5003;58104;52.744;15.242;2023-04-30T02:30:03;12;9;
70554;PMS5003;58104;52.744;15.242;2023-04-30T02:32:28;10;9;
70554;PMS5003;58104;52.744;15.242;2023-04-30T02:34:54;10;8;
70554;PMS5003;58104;52.744;15.242;2023-04-30T02:37:19;11;8;
70554;PMS5003;58104;52.744;15.242;2023-04-30T02:39:45;10;10;
70554;PMS5003;58104;52.744;15.242;2023-04-30T02:42:10;13;8;
70554;PMS5003;58104;52.744;15.242;2023-04-30T02:44:36;10;9;
70554;PMS5003;58104;52.744;15.242;2023-04-30T02:47:01;12;12;
70554;PMS5003;58104;52.744;15.242;2023-04-30T02:49:27;12;9;
70554;PMS5003;58104;52.744;15.242;2023-04-30T02:51:52;9;7;
70554;PMS5003;58104;52.744;15.242;2023-04-30T02:54:18;9;9;
70554;PMS5003;58104;52.744;15.242;2023-04-30T02:56:43;9;7;
70554;PMS5003;58104;52.744;15.242;2023-04-30T02:59:08;9;9;
70554;PMS5003;58104;52.744;15.242;2023-04-30T03:01:34;10;8;
70554;PMS5003;58104;52.744;15.242;2023-04-30T03:03:59;12;12;
70554;PMS5003;58104;52.744;15.242;2023-04-30T03:06:25;10;10;
70554;PMS5003;58104;52.744;15.242;2023-04-30T03:08:51;8;8;
70554;PMS5003;58104;52.744;15.242;2023-04-30T03:11:16;9;8;
70554;PMS5003;58104;52.744;15.242;2023-04-30T03:13:42;9;7;
70554;PMS5003;58104;52.744;15.242;2023-04-30T03:16:07;9;9;
70554;PMS5003;58104;52.744;15.242;2023-04-30T03:18:32;10;7;
70554;PMS5003;58104;52.744;15.242;2023-04-30T03:20:58;9;9;
70554;PMS5003;58104;52.744;15.242;2023-04-30T03:23:25;11;8;
70554;PMS5003;58104;52.744;15.242;2023-04-30T03:25:49;7;7;
70554;PMS5003;58104;52.744;15.242;2023-04-30T03:28:14;9;7;
70554;PMS5003;58104;52.744;15.242;2023-04-30T03:30:40;8;7;
70554;PMS5003;58104;52.744;15.242;2023-04-30T03:33:05;10;8;
70554;PMS5003;58104;52.744;15.242;2023-04-30T03:35:31;11;9;
70554;PMS5003;58104;52.744;15.242;2023-04-30T03:37:56;9;9;
70554;PMS5003;58104;52.744;15.242;2023-04-30T03:40:21;9;7;
70554;PMS5003;58104;52.744;15.242;2023-04-30T03:42:47;8;7;
70554;PMS5003;58104;52.744;15.242;2023-04-30T03:45:12;14;9;
70554;PMS5003;58104;52.744;15.242;2023-04-30T03:47:38;10;8;
70554;PMS5003;58104;52.744;15.242;2023-04-30T03:50:04;8;8;
70554;PMS5003;58104;52.744;15.242;2023-04-30T03:52:29;8;6;
70554;PMS5003;58104;52.744;15.242;2023-04-30T03:54:54;10;9;
70554;PMS5003;58104;52.744;15.242;2023-04-30T03:57:20;11;7;
70554;PMS5003;58104;52.744;15.242;2023-04-30T03:59:45;5;5;
70554;PMS5003;58104;52.744;15.242;2023-04-30T04:02:10;13;10;
70554;PMS5003;58104;52.744;15.242;2023-04-30T04:04:36;11;8;
70554;PMS5003;58104;52.744;15.242;2023-04-30T04:07:01;8;6;
70554;PMS5003;58104;52.744;15.242;2023-04-30T04:09:27;9;9;
70554;PMS5003;58104;52.744;15.242;2023-04-30T04:11:52;7;7;
70554;PMS5003;58104;52.744;15.242;2023-04-30T04:14:18;7;6;
70554;PMS5003;58104;52.744;15.242;2023-04-30T04:16:43;9;8;
70554;PMS5003;58104;52.744;15.242;2023-04-30T04:19:08;10;10;
70554;PMS5003;58104;52.744;15.242;2023-04-30T04:21:35;7;7;
70554;PMS5003;58104;52.744;15.242;2023-04-30T04:23:59;8;8;
70554;PMS5003;58104;52.744;15.242;2023-04-30T04:26:25;8;7;
70554;PMS5003;58104;52.744;15.242;2023-04-30T04:28:50;10;8;
70554;PMS5003;58104;52.744;15.242;2023-04-30T04:31:15;12;10;
70554;PMS5003;58104;52.744;15.242;2023-04-30T04:33:41;11;8;
70554;PMS5003;58104;52.744;15.242;2023-04-30T04:36:06;14;8;
70554;PMS5003;58104;52.744;15.242;2023-04-30T04:38:31;7;7;
70554;PMS5003;58104;52.744;15.242;2023-04-30T04:40:57;10;10;
70554;PMS5003;58104;52.744;15.242;2023-04-30T04:43:23;8;7;
70554;PMS5003;58104;52.744;15.242;2023-04-30T04:45:48;6;6;
70554;PMS5003;58104;52.744;15.242;2023-04-30T04:48:14;9;9;
70554;PMS5003;58104;52.744;15.242;2023-04-30T04:50:39;6;6;
70554;PMS5003;58104;52.744;15.242;2023-04-30T04:53:04;12;9;
70554;PMS5003;58104;52.744;15.242;2023-04-30T04:55:30;12;10;
70554;PMS5003;58104;52.744;15.242;2023-04-30T04:57:56;10;10;
70554;PMS5003;58104;52.744;15.242;2023-04-30T05:00:21;11;10;
70554;PMS5003;58104;52.744;15.242;2023-04-30T05:02:46;11;9;
70554;PMS5003;58104;52.744;15.242;2023-04-30T05:05:12;13;11;
70554;PMS5003;58104;52.744;15.242;2023-04-30T05:07:38;13;12;
70554;PMS5003;58104;52.744;15.242;2023-04-30T05:10:03;12;10;
70554;PMS5003;58104;52.744;15.242;2023-04-30T05:12:29;20;10;
70554;PMS5003;58104;52.744;15.242;2023-04-30T05:14:54;14;10;
70554;PMS5003;58104;52.744;15.242;2023-04-30T05:17:19;11;11;
70554;PMS5003;58104;52.744;15.242;2023-04-30T05:19:45;9;7;
70554;PMS5003;58104;52.744;15.242;2023-04-30T05:22:10;11;11;
70554;PMS5003;58104;52.744;15.242;2023-04-30T05:24:35;11;11;
70554;PMS5003;58104;52.744;15.242;2023-04-30T05:27:01;16;12;
70554;PMS5003;58104;52.744;15.242;2023-04-30T05:29:26;10;9;
70554;PMS5003;58104;52.744;15.242;2023-04-30T05:31:52;12;12;
70554;PMS5003;58104;52.744;15.242;2023-04-30T05:34:17;11;8;
70554;PMS5003;58104;52.744;15.242;2023-04-30T05:36:43;10;10;
70554;PMS5003;58104;52.744;15.242;2023-04-30T05:39:08;13;10;
70554;PMS5003;58104;52.744;15.242;2023-04-30T05:41:34;12;9;
70554;PMS5003;58104;52.744;15.242;2023-04-30T05:43:59;11;11;
70554;PMS5003;58104;52.744;15.242;2023-04-30T05:46:24;9;9;
70554;PMS5003;58104;52.744;15.242;2023-04-30T05:48:49;9;9;
70554;PMS5003;58104;52.744;15.242;2023-04-30T05:51:15;8;8;
70554;PMS5003;58104;52.744;15.242;2023-04-30T05:53:40;9;9;
70554;PMS5003;58104;52.744;15.242;2023-04-30T05:56:06;8;8;
70554;PMS5003;58104;52.744;15.242;2023-04-30T05:58:31;10;8;
70554;PMS5003;58104;52.744;15.242;2023-04-30T06:00:57;8;8;
70554;PMS5003;58104;52.744;15.242;2023-04-30T06:03:22;10;9;
70554;PMS5003;58104;52.744;15.242;2023-04-30T06:05:48;10;9;
70554;PMS5003;58104;52.744;15.242;2023-04-30T06:08:13;8;8;
70554;PMS5003;58104;52.744;15.242;2023-04-30T06:10:38;10;9;
70554;PMS5003;58104;52.744;15.242;2023-04-30T06:13:04;10;8;
70554;PMS5003;58104;52.744;15.242;2023-04-30T06:15:29;8;8;
70554;PMS5003;58104;52.744;15.242;2023-04-30T06:17:55;12;9;
70554;PMS5003;58104;52.744;15.242;2023-04-30T06:20:20;11;9;
70554;PMS5003;58104;52.744;15.242;2023-04-30T06:22:46;7;7;
70554;PMS5003;58104;52.744;15.242;2023-04-30T06:25:11;10;9;
70554;PMS5003;58104;52.744;15.242;2023-04-30T06:27:37;6;6;
70554;PMS5003;58104;52.744;15.242;2023-04-30T06:30:02;8;7;
70554;PMS5003;58104;52.744;15.242;2023-04-30T06:32:27;8;6;
70554;PMS5003;58104;52.744;15.242;2023-04-30T06:34:53;7;7;
70554;PMS5003;58104;52.744;15.242;2023-04-30T06:37:18;8;7;
70554;PMS5003;58104;52.744;15.242;2023-04-30T06:39:44;12;8;
70554;PMS5003;58104;52.744;15.242;2023-04-30T06:42:09;11;9;
70554;PMS5003;58104;52.744;15.242;2023-04-30T06:44:34;7;7;
70554;PMS5003;58104;52.744;15.242;2023-04-30T06:47:00;11;7;
70554;PMS5003;58104;52.744;15.242;2023-04-30T06:49:25;6;6;
70554;PMS5003;58104;52.744;15.242;2023-04-30T06:51:51;8;6;
70554;PMS5003;58104;52.744;15.242;2023-04-30T06:54:16;8;7;
70554;PMS5003;58104;52.744;15.242;2023-04-30T06:56:42;8;5;
70554;PMS5003;58104;52.744;15.242;2023-04-30T06:59:07;7;7;
70554;PMS5003;58104;52.744;15.242;2023-04-30T07:01:33;10;8;
70554;PMS5003;58104;52.744;15.242;2023-04-30T07:03:59;8;6;
70554;PMS5003;58104;52.744;15.242;2023-04-30T07:06:24;9;8;
70554;PMS5003;58104;52.744;15.242;2023-04-30T07:08:49;5;5;
70554;PMS5003;58104;52.744;15.242;2023-04-30T07:11:15;7;7;
70554;PMS5003;58104;52.744;15.242;2023-04-30T07:13:40;5;5;
70554;PMS5003;58104;52.744;15.242;2023-04-30T07:16:06;8;5;
70554;PMS5003;58104;52.744;15.242;2023-04-30T07:18:31;6;5;
70554;PMS5003;58104;52.744;15.242;2023-04-30T07:20:56;9;6;
70554;PMS5003;58104;52.744;15.242;2023-04-30T07:23:22;8;7;
70554;PMS5003;58104;52.744;15.242;2023-04-30T07:25:47;7;5;
70554;PMS5003;58104;52.744;15.242;2023-04-30T07:28:13;9;7;
70554;PMS5003;58104;52.744;15.242;2023-04-30T07:30:38;5;3;
70554;PMS5003;58104;52.744;15.242;2023-04-30T07:33:04;5;4;
70554;PMS5003;58104;52.744;15.242;2023-04-30T07:35:29;7;6;
70554;PMS5003;58104;52.744;15.242;2023-04-30T07:37:55;8;5;
70554;PMS5003;58104;52.744;15.242;2023-04-30T07:40:20;7;5;
70554;PMS5003;58104;52.744;15.242;2023-04-30T07:42:45;9;6;
70554;PMS5003;58104;52.744;15.242;2023-04-30T07:45:11;6;6;
70554;PMS5003;58104;52.744;15.242;2023-04-30T07:47:36;4;4;
70554;PMS5003;58104;52.744;15.242;2023-04-30T07:50:02;6;6;
70554;PMS5003;58104;52.744;15.242;2023-04-30T07:52:27;5;5;
70554;PMS5003;58104;52.744;15.242;2023-04-30T07:54:52;6;4;
70554;PMS5003;58104;52.744;15.242;2023-04-30T07:57:18;10;7;
70554;PMS5003;58104;52.744;15.242;2023-04-30T07:59:43;5;5;
70554;PMS5003;58104;52.744;15.242;2023-04-30T08:02:09;8;8;
70554;PMS5003;58104;52.744;15.242;2023-04-30T08:04:34;5;3;
70554;PMS5003;58104;52.744;15.242;2023-04-30T08:06:59;8;6;
70554;PMS5003;58104;52.744;15.242;2023-04-30T08:09:25;7;6;
70554;PMS5003;58104;52.744;15.242;2023-04-30T08:11:50;10;7;
70554;PMS5003;58104;52.744;15.242;2023-04-30T08:14:16;6;5;
70554;PMS5003;58104;52.744;15.242;2023-04-30T08:16:41;10;7;
70554;PMS5003;58104;52.744;15.242;2023-04-30T08:19:07;8;7;
70554;PMS5003;58104;52.744;15.242;2023-04-30T08:21:32;10;6;
70554;PMS5003;58104;52.744;15.242;2023-04-30T08:23:58;7;7;
70554;PMS5003;58104;52.744;15.242;2023-04-30T08:26:24;7;4;
70554;PMS5003;58104;52.744;15.242;2023-04-30T08:28:48;6;6;
70554;PMS5003;58104;52.744;15.242;2023-04-30T08:31:14;7;5;
70554;PMS5003;58104;52.744;15.242;2023-04-30T08:33:39;10;7;
70554;PMS5003;58104;52.744;15.242;2023-04-30T08:36:05;6;6;
70554;PMS5003;58104;52.744;15.242;2023-04-30T08:38:30;7;7;
70554;PMS5003;58104;52.744;15.242;2023-04-30T08:40:59;10;7;
70554;PMS5003;58104;52.744;15.242;2023-04-30T08:43:21;10;8;
70554;PMS5003;58104;52.744;15.242;2023-04-30T08:45:46;5;5;
70554;PMS5003;58104;52.744;15.242;2023-04-30T08:48:11;8;6;
70554;PMS5003;58104;52.744;15.242;2023-04-30T08:50:37;5;5;
70554;PMS5003;58104;52.744;15.242;2023-04-30T08:53:02;10;7;
70554;PMS5003;58104;52.744;15.242;2023-04-30T08:55:28;6;6;
70554;PMS5003;58104;52.744;15.242;2023-04-30T08:57:53;8;5;
70554;PMS5003;58104;52.744;15.242;2023-04-30T09:00:18;8;7;
70554;PMS5003;58104;52.744;15.242;2023-04-30T09:02:44;7;7;
70554;PMS5003;58104;52.744;15.242;2023-04-30T09:05:10;7;7;
70554;PMS5003;58104;52.744;15.242;2023-04-30T09:07:34;8;7;
70554;PMS5003;58104;52.744;15.242;2023-04-30T09:10:00;8;7;
70554;PMS5003;58104;52.744;15.242;2023-04-30T09:12:25;8;7;
70554;PMS5003;58104;52.744;15.242;2023-04-30T09:17:20;7;7;
70554;PMS5003;58104;52.744;15.242;2023-04-30T09:19:42;9;8;
70554;PMS5003;58104;52.744;15.242;2023-04-30T09:24:44;8;6;
70554;PMS5003;58104;52.744;15.242;2023-04-30T09:26:58;10;6;
70554;PMS5003;58104;52.744;15.242;2023-04-30T09:31:49;6;6;
70554;PMS5003;58104;52.744;15.242;2023-04-30T09:34:14;5;5;
70554;PMS5003;58104;52.744;15.242;2023-04-30T09:39:06;9;9;
70554;PMS5003;58104;52.744;15.242;2023-04-30T09:41:30;7;7;
70554;PMS5003;58104;52.744;15.242;2023-04-30T09:43:56;9;6;
70554;PMS5003;58104;52.744;15.242;2023-04-30T09:46:21;6;6;
70554;PMS5003;58104;52.744;15.242;2023-04-30T09:48:46;5;5;
70554;PMS5003;58104;52.744;15.242;2023-04-30T09:51:12;5;5;
70554;PMS5003;58104;52.744;15.242;2023-04-30T09:53:37;4;4;
70554;PMS5003;58104;52.744;15.242;2023-04-30T09:56:03;6;6;
70554;PMS5003;58104;52.744;15.242;2023-04-30T09:58:28;6;6;
70554;PMS5003;58104;52.744;15.242;2023-04-30T10:00:53;6;6;
70554;PMS5003;58104;52.744;15.242;2023-04-30T10:03:19;7;6;
70554;PMS5003;58104;52.744;15.242;2023-04-30T10:05:45;5;5;
70554;PMS5003;58104;52.744;15.242;2023-04-30T10:08:12;4;4;
70554;PMS5003;58104;52.744;15.242;2023-04-30T10:10:35;7;6;
70554;PMS5003;58104;52.744;15.242;2023-04-30T10:13:02;6;6;
70554;PMS5003;58104;52.744;15.242;2023-04-30T10:15:27;7;7;
70554;PMS5003;58104;52.744;15.242;2023-04-30T10:17:53;6;4;
70554;PMS5003;58104;52.744;15.242;2023-04-30T10:20:17;6;5;
70554;PMS5003;58104;52.744;15.242;2023-04-30T10:22:42;5;5;
70554;PMS5003;58104;52.744;15.242;2023-04-30T10:25:08;8;7;
70554;PMS5003;58104;52.744;15.242;2023-04-30T10:27:33;7;5;
70554;PMS5003;58104;52.744;15.242;2023-04-30T10:29:59;5;5;
70554;PMS5003;58104;52.744;15.242;2023-04-30T10:32:24;5;4;
70554;PMS5003;58104;52.744;15.242;2023-04-30T10:34:51;6;4;
70554;PMS5003;58104;52.744;15.242;2023-04-30T10:37:17;4;4;
70554;PMS5003;58104;52.744;15.242;2023-04-30T10:39:40;5;5;
70554;PMS5003;58104;52.744;15.242;2023-04-30T10:42:06;9;4;
70554;PMS5003;58104;52.744;15.242;2023-04-30T10:44:31;5;4;
70554;PMS5003;58104;52.744;15.242;2023-04-30T10:46:58;6;4;
70554;PMS5003;58104;52.744;15.242;2023-04-30T10:49:23;6;6;
70554;PMS5003;58104;52.744;15.242;2023-04-30T10:51:48;5;5;
70554;PMS5003;58104;52.744;15.242;2023-04-30T10:54:14;5;5;
70554;PMS5003;58104;52.744;15.242;2023-04-30T10:56:38;4;4;
70554;PMS5003;58104;52.744;15.242;2023-04-30T10:59:03;3;3;
70554;PMS5003;58104;52.744;15.242;2023-04-30T11:01:28;5;5;
70554;PMS5003;58104;52.744;15.242;2023-04-30T11:06:21;3;3;
70554;PMS5003;58104;52.744;15.242;2023-04-30T11:08:45;5;5;
70554;PMS5003;58104;52.744;15.242;2023-04-30T11:11:11;5;5;
70554;PMS5003;58104;52.744;15.242;2023-04-30T11:13:39;5;4;
70554;PMS5003;58104;52.744;15.242;2023-04-30T11:16:01;5;4;
70554;PMS5003;58104;52.744;15.242;2023-04-30T11:18:26;6;5;
70554;PMS5003;58104;52.744;15.242;2023-04-30T11:20:52;5;5;
70554;PMS5003;58104;52.744;15.242;2023-04-30T11:23:21;3;3;
70554;PMS5003;58104;52.744;15.242;2023-04-30T11:25:43;4;4;
70554;PMS5003;58104;52.744;15.242;2023-04-30T11:28:12;6;6;
70554;PMS5003;58104;52.744;15.242;2023-04-30T11:30:34;3;3;
70554;PMS5003;58104;52.744;15.242;2023-04-30T11:32:59;6;3;
70554;PMS5003;58104;52.744;15.242;2023-04-30T11:35:25;8;6;
70554;PMS5003;58104;52.744;15.242;2023-04-30T11:37:53;7;4;
70554;PMS5003;58104;52.744;15.242;2023-04-30T11:40:15;6;4;
70554;PMS5003;58104;52.744;15.242;2023-04-30T11:42:41;8;6;
70554;PMS5003;58104;52.744;15.242;2023-04-30T11:45:07;6;5;
70554;PMS5003;58104;52.744;15.242;2023-04-30T11:49:57;6;4;
70554;PMS5003;58104;52.744;15.242;2023-04-30T11:52:24;5;5;
70554;PMS5003;58104;52.744;15.242;2023-04-30T11:54:48;5;3;
70554;PMS5003;58104;52.744;15.242;2023-04-30T11:57:13;4;4;
70554;PMS5003;58104;52.744;15.242;2023-04-30T11:59:39;6;5;
70554;PMS5003;58104;52.744;15.242;2023-04-30T12:02:04;6;3;
70554;PMS5003;58104;52.744;15.242;2023-04-30T12:04:29;3;3;
70554;PMS5003;58104;52.744;15.242;2023-04-30T12:06:55;7;5;
70554;PMS5003;58104;52.744;15.242;2023-04-30T12:09:20;4;4;
70554;PMS5003;58104;52.744;15.242;2023-04-30T12:11:45;8;5;
70554;PMS5003;58104;52.744;15.242;2023-04-30T12:14:11;8;6;
70554;PMS5003;58104;52.744;15.242;2023-04-30T12:16:38;6;6;
70554;PMS5003;58104;52.744;15.242;2023-04-30T12:19:02;7;6;
70554;PMS5003;58104;52.744;15.242;2023-04-30T12:21:27;2;2;
70554;PMS5003;58104;52.744;15.242;2023-04-30T12:23:52;7;5;
70554;PMS5003;58104;52.744;15.242;2023-04-30T12:26:18;9;6;
70554;PMS5003;58104;52.744;15.242;2023-04-30T12:28:45;8;6;
70554;PMS5003;58104;52.744;15.242;2023-04-30T12:31:09;8;6;
70554;PMS5003;58104;52.744;15.242;2023-04-30T12:33:34;5;4;
70554;PMS5003;58104;52.744;15.242;2023-04-30T12:35:59;6;6;
70554;PMS5003;58104;52.744;15.242;2023-04-30T12:38:25;6;6;
70554;PMS5003;58104;52.744;15.242;2023-04-30T12:40:50;6;6;
70554;PMS5003;58104;52.744;15.242;2023-04-30T12:43:16;5;5;
70554;PMS5003;58104;52.744;15.242;2023-04-30T12:45:43;8;5;
70554;PMS5003;58104;52.744;15.242;2023-04-30T12:48:07;7;7;
70554;PMS5003;58104;52.744;15.242;2023-04-30T12:50:32;8;7;
70554;PMS5003;58104;52.744;15.242;2023-04-30T12:53:02;8;6;
70554;PMS5003;58104;52.744;15.242;2023-04-30T12:55:23;5;4;
70554;PMS5003;58104;52.744;15.242;2023-04-30T13:00:14;6;5;
70554;PMS5003;58104;52.744;15.242;2023-04-30T13:02:39;5;5;
70554;PMS5003;58104;52.744;15.242;2023-04-30T13:05:05;7;7;
70554;PMS5003;58104;52.744;15.242;2023-04-30T13:09:55;6;6;
70554;PMS5003;58104;52.744;15.242;2023-04-30T13:12:21;6;5;
70554;PMS5003;58104;52.744;15.242;2023-04-30T13:14:46;6;6;
70554;PMS5003;58104;52.744;15.242;2023-04-30T13:17:12;7;7;
70554;PMS5003;58104;52.744;15.242;2023-04-30T13:19:37;8;7;
70554;PMS5003;58104;52.744;15.242;2023-04-30T13:22:03;4;4;
70554;PMS5003;58104;52.744;15.242;2023-04-30T13:24:28;6;6;
70554;PMS5003;58104;52.744;15.242;2023-04-30T13:26:54;6;5;
70554;PMS5003;58104;52.744;15.242;2023-04-30T13:29:19;7;7;
70554;PMS5003;58104;52.744;15.242;2023-04-30T13:31:44;7;7;
70554;PMS5003;58104;52.744;15.242;2023-04-30T13:34:10;7;7;
70554;PMS5003;58104;52.744;15.242;2023-04-30T13:36:35;6;6;
70554;PMS5003;58104;52.744;15.242;2023-04-30T13:39:00;9;9;
70554;PMS5003;58104;52.744;15.242;2023-04-30T13:41:26;9;7;
70554;PMS5003;58104;52.744;15.242;2023-04-30T13:43:51;8;8;
70554;PMS5003;58104;52.744;15.242;2023-04-30T13:46:16;5;5;
70554;PMS5003;58104;52.744;15.242;2023-04-30T13:48:41;7;7;
70554;PMS5003;58104;52.744;15.242;2023-04-30T13:51:07;4;4;
70554;PMS5003;58104;52.744;15.242;2023-04-30T13:53:32;6;4;
70554;PMS5003;58104;52.744;15.242;2023-04-30T13:55:58;8;6;
70554;PMS5003;58104;52.744;15.242;2023-04-30T13:58:23;6;6;
70554;PMS5003;58104;52.744;15.242;2023-04-30T14:00:49;6;6;
70554;PMS5003;58104;52.744;15.242;2023-04-30T14:03:14;6;6;
70554;PMS5003;58104;52.744;15.242;2023-04-30T14:05:39;7;5;
70554;PMS5003;58104;52.744;15.242;2023-04-30T14:08:05;8;8;
70554;PMS5003;58104;52.744;15.242;2023-04-30T14:10:30;9;8;
70554;PMS5003;58104;52.744;15.242;2023-04-30T14:12:55;9;7;
70554;PMS5003;58104;52.744;15.242;2023-04-30T14:15:21;9;6;
70554;PMS5003;58104;52.744;15.242;2023-04-30T14:17:46;9;5;
70554;PMS5003;58104;52.744;15.242;2023-04-30T14:20:12;5;5;
70554;PMS5003;58104;52.744;15.242;2023-04-30T14:22:37;7;7;
70554;PMS5003;58104;52.744;15.242;2023-04-30T14:25:03;7;6;
70554;PMS5003;58104;52.744;15.242;2023-04-30T14:27:28;7;7;
70554;PMS5003;58104;52.744;15.242;2023-04-30T14:29:53;6;6;
70554;PMS5003;58104;52.744;15.242;2023-04-30T14:32:19;9;6;
70554;PMS5003;58104;52.744;15.242;2023-04-30T14:34:44;8;8;
70554;PMS5003;58104;52.744;15.242;2023-04-30T14:37:10;6;6;
70554;PMS5003;58104;52.744;15.242;2023-04-30T14:39:35;6;6;
70554;PMS5003;58104;52.744;15.242;2023-04-30T14:42:00;8;6;
70554;PMS5003;58104;52.744;15.242;2023-04-30T14:44:26;9;6;
70554;PMS5003;58104;52.744;15.242;2023-04-30T14:46:52;6;6;
70554;PMS5003;58104;52.744;15.242;2023-04-30T14:49:17;5;5;
70554;PMS5003;58104;52.744;15.242;2023-04-30T14:51:42;8;6;
70554;PMS5003;58104;52.744;15.242;2023-04-30T14:54:08;6;6;
70554;PMS5003;58104;52.744;15.242;2023-04-30T14:56:33;6;6;
70554;PMS5003;58104;52.744;15.242;2023-04-30T14:58:59;6;6;
70554;PMS5003;58104;52.744;15.242;2023-04-30T15:01:28;7;7;
70554;PMS5003;58104;52.744;15.242;2023-04-30T15:03:54;5;4;
70554;PMS5003;58104;52.744;15.242;2023-04-30T15:06:16;7;6;
70554;PMS5003;58104;52.744;15.242;2023-04-30T15:08:41;5;5;
70554;PMS5003;58104;52.744;15.242;2023-04-30T15:11:05;7;7;
70554;PMS5003;58104;52.744;15.242;2023-04-30T15:13:31;6;6;
70554;PMS5003;58104;52.744;15.242;2023-04-30T15:15:56;8;6;
70554;PMS5003;58104;52.744;15.242;2023-04-30T15:18:22;6;6;
70554;PMS5003;58104;52.744;15.242;2023-04-30T15:20:47;7;5;
70554;PMS5003;58104;52.744;15.242;2023-04-30T15:23:13;5;4;
70554;PMS5003;58104;52.744;15.242;2023-04-30T15:25:38;8;6;
70554;PMS5003;58104;52.744;15.242;2023-04-30T15:28:03;9;7;
70554;PMS5003;58104;52.744;15.242;2023-04-30T15:30:29;7;7;
70554;PMS5003;58104;52.744;15.242;2023-04-30T15:32:54;8;5;
70554;PMS5003;58104;52.744;15.242;2023-04-30T15:35:19;3;3;
70554;PMS5003;58104;52.744;15.242;2023-04-30T15:37:45;8;7;
70554;PMS5003;58104;52.744;15.242;2023-04-30T15:40:10;7;4;
70554;PMS5003;58104;52.744;15.242;2023-04-30T15:42:35;3;3;
70554;PMS5003;58104;52.744;15.242;2023-04-30T15:45:01;7;6;
70554;PMS5003;58104;52.744;15.242;2023-04-30T15:47:26;7;6;
70554;PMS5003;58104;52.744;15.242;2023-04-30T15:49:52;3;3;
70554;PMS5003;58104;52.744;15.242;2023-04-30T15:52:17;6;5;
70554;PMS5003;58104;52.744;15.242;2023-04-30T15:54:42;5;5;
70554;PMS5003;58104;52.744;15.242;2023-04-30T15:57:08;9;6;
70554;PMS5003;58104;52.744;15.242;2023-04-30T15:59:33;6;4;
70554;PMS5003;58104;52.744;15.242;2023-04-30T16:01:59;7;6;
70554;PMS5003;58104;52.744;15.242;2023-04-30T16:04:24;6;6;
70554;PMS5003;58104;52.744;15.242;2023-04-30T16:06:49;5;5;
70554;PMS5003;58104;52.744;15.242;2023-04-30T16:09:15;4;4;
70554;PMS5003;58104;52.744;15.242;2023-04-30T16:11:41;7;7;
70554;PMS5003;58104;52.744;15.242;2023-04-30T16:14:06;5;4;
70554;PMS5003;58104;52.744;15.242;2023-04-30T16:16:32;5;5;
70554;PMS5003;58104;52.744;15.242;2023-04-30T16:18:57;6;6;
70554;PMS5003;58104;52.744;15.242;2023-04-30T16:21:23;6;6;
70554;PMS5003;58104;52.744;15.242;2023-04-30T16:23:48;7;7;
70554;PMS5003;58104;52.744;15.242;2023-04-30T16:26:13;6;5;
70554;PMS5003;58104;52.744;15.242;2023-04-30T16:28:39;6;6;
70554;PMS5003;58104;52.744;15.242;2023-04-30T16:31:04;9;5;
70554;PMS5003;58104;52.744;15.242;2023-04-30T16:33:30;5;5;
70554;PMS5003;58104;52.744;15.242;2023-04-30T16:35:55;6;5;
70554;PMS5003;58104;52.744;15.242;2023-04-30T16:38:21;6;5;
70554;PMS5003;58104;52.744;15.242;2023-04-30T16:40:46;8;7;